Time;durP1;ratioP1;P1;durP2;ratioP2;P2;SDS_P1;SDS_P2;PMS_P1;PMS_P2;Temp;Humidity;BMP_temperature;BMP_pressure;BME280_temperature;BME280_humidity;BME280_pressure;Samples;Min_cycle;Max_cycle;Signal;HPM_P1;HPM_P2
2024/01/09 00:01:08;;;;;;;5.28;3.22;;;;;;;0.73;97.03;102006.25;6122227;23;20002;-90
2024/01/09 00:03:34;;;;;;;4.53;2.47;;;;;;;0.87;96.69;102002.97;6121712;23;20013;-91
2024/01/09 00:05:59;;;;;;;7.80;2.65;;;;;;;0.94;94.76;102005.56;6121593;23;20041;-91
2024/01/09 00:08:25;;;;;;;3.97;1.83;;;;;;;0.98;93.91;102008.97;6120145;23;20006;-90
2024/01/09 00:10:50;;;;;;;7.78;2.40;;;;;;;1.01;92.72;102001.38;6121941;23;20389;-90
2024/01/09 00:13:16;;;;;;;9.27;2.78;;;;;;;1.00;94.23;102003.06;6121700;23;20006;-91
2024/01/09 00:15:41;;;;;;;5.95;2.85;;;;;;;0.93;94.63;102000.47;6121317;23;20006;-91
2024/01/09 00:18:06;;;;;;;10.48;3.08;;;;;;;0.92;94.37;101999.59;6121595;23;20006;-91
2024/01/09 00:20:32;;;;;;;5.38;2.88;;;;;;;0.92;94.97;101997.06;6120291;23;20005;-91
2024/01/09 00:22:57;;;;;;;7.80;2.58;;;;;;;1.02;94.11;101992.88;6120224;23;20491;-91
2024/01/09 00:25:22;;;;;;;5.88;2.25;;;;;;;0.98;95.35;101996.28;6120454;23;20060;-90
2024/01/09 00:27:48;;;;;;;7.40;2.35;;;;;;;0.99;92.92;101991.19;6121760;23;20037;-90
2024/01/09 00:30:13;;;;;;;6.65;3.15;;;;;;;0.88;94.44;101997.00;6121484;23;20006;-91
2024/01/09 00:32:39;;;;;;;5.75;2.67;;;;;;;0.98;92.28;101988.66;6121789;23;20433;-91
2024/01/09 00:35:05;;;;;;;11.07;2.45;;;;;;;0.91;93.45;101991.97;6121602;23;20005;-91
2024/01/09 00:37:31;;;;;;;4.07;2.60;;;;;;;0.84;93.97;101986.84;6121601;23;20010;-91
2024/01/09 00:39:56;;;;;;;7.35;2.85;;;;;;;0.90;93.25;101992.81;6121854;23;20329;-91
2024/01/09 00:42:21;;;;;;;8.68;3.05;;;;;;;1.00;90.45;101989.47;6121586;23;20002;-91
2024/01/09 00:44:47;;;;;;;8.52;3.13;;;;;;;0.94;90.79;102000.47;6119984;23;20389;-91
2024/01/09 00:47:13;;;;;;;10.70;3.13;;;;;;;1.04;89.89;101991.22;6121728;23;20437;-92
2024/01/09 00:49:39;;;;;;;5.90;2.60;;;;;;;1.01;89.89;101998.81;6120403;23;20026;-90
2024/01/09 00:52:04;;;;;;;7.05;2.83;;;;;;;0.87;91.84;102000.41;6119706;23;20002;-90
2024/01/09 00:54:30;;;;;;;17.40;3.97;;;;;;;0.89;91.20;101996.19;6121527;23;20002;-91
2024/01/09 00:56:55;;;;;;;6.57;2.80;;;;;;;0.91;93.28;101994.53;6119684;23;20017;-91
2024/01/09 00:59:21;;;;;;;6.50;4.57;;;;;;;0.99;91.61;101997.97;6121200;23;20002;-90
2024/01/09 01:01:50;;;;;;;4.80;2.67;;;;;;;0.91;91.68;102005.53;6119675;23;20006;-90
2024/01/09 01:04:16;;;;;;;5.13;2.08;;;;;;;1.04;88.94;101996.31;6119932;23;20171;-90
2024/01/09 01:06:42;;;;;;;8.43;2.67;;;;;;;1.01;90.26;102001.38;6121060;23;20006;-91
2024/01/09 01:09:08;;;;;;;9.75;3.10;;;;;;;0.91;92.15;101999.59;6119670;23;20002;-90
2024/01/09 01:11:33;;;;;;;7.95;2.40;;;;;;;1.00;92.25;101999.66;6121209;23;20002;-92
2024/01/09 01:13:58;;;;;;;10.40;3.17;;;;;;;1.00;92.28;102003.06;6121135;23;20011;-91
2024/01/09 01:16:24;;;;;;;10.23;2.70;;;;;;;0.98;92.48;102002.19;6121290;23;20002;-92
2024/01/09 01:18:49;;;;;;;7.70;2.88;;;;;;;1.05;91.91;101998.88;6121042;23;20013;-91
2024/01/09 01:21:15;;;;;;;9.57;2.75;;;;;;;0.94;92.43;102000.47;6121020;23;20002;-91
2024/01/09 01:23:41;;;;;;;9.23;3.05;;;;;;;1.02;91.80;101992.88;6120965;23;20082;-91
2024/01/09 01:26:06;;;;;;;10.32;2.60;;;;;;;1.02;91.73;101988.66;6120997;23;19998;-91
2024/01/09 01:28:32;;;;;;;10.43;3.17;;;;;;;1.10;90.87;101981.09;6121066;23;20010;-91
2024/01/09 01:30:57;;;;;;;9.88;2.80;;;;;;;1.02;92.14;101992.88;6121233;23;20030;-91
2024/01/09 01:33:22;;;;;;;7.80;2.72;;;;;;;0.94;94.51;101984.38;6121186;23;20429;-90
2024/01/09 01:35:48;;;;;;;11.95;3.33;;;;;;;1.12;91.46;101979.38;6121082;23;19998;-92
2024/01/09 01:38:13;;;;;;;11.43;3.55;;;;;;;1.01;93.14;101979.34;6121249;23;20002;-90
2024/01/09 01:40:39;;;;;;;5.05;2.70;;;;;;;1.02;92.46;101977.63;6121349;23;20012;-91
2024/01/09 01:43:05;;;;;;;9.95;3.13;;;;;;;1.01;92.29;101986.13;6120963;23;20483;-91
2024/01/09 01:45:30;;;;;;;8.20;2.50;;;;;;;0.91;93.98;101974.19;6119309;23;20002;-90
2024/01/09 01:47:57;;;;;;;11.00;3.38;;;;;;;1.01;94.26;101978.50;6121366;23;20001;-90
2024/01/09 01:50:23;;;;;;;8.32;3.28;;;;;;;0.97;94.94;101994.56;6121103;23;20006;-91
2024/01/09 01:52:50;;;;;;;6.63;2.90;;;;;;;0.88;95.68;101984.31;6120848;23;20492;-91
2024/01/09 01:55:19;;;;;;;6.78;2.60;;;;;;;0.95;95.71;101992.03;6118746;23;20028;-90
2024/01/09 01:57:47;;;;;;;13.40;3.03;;;;;;;0.76;95.05;101991.03;6120964;23;20436;-91
2024/01/09 02:00:14;;;;;;;11.63;2.58;;;;;;;0.84;96.36;101986.84;6119527;23;20012;-91
2024/01/09 02:02:41;;;;;;;8.10;2.95;;;;;;;0.79;94.87;101980.88;6120970;23;20073;-91
2024/01/09 02:05:08;;;;;;;7.43;3.35;;;;;;;0.73;94.23;101980.84;6121457;23;20089;-90
2024/01/09 02:07:34;;;;;;;6.05;3.33;;;;;;;0.84;93.41;101978.38;6119507;23;20534;-91
2024/01/09 02:10:00;;;;;;;8.73;3.30;;;;;;;0.94;92.48;101980.13;6120360;23;20433;-91
2024/01/09 02:12:25;;;;;;;9.48;3.10;;;;;;;0.83;92.84;101974.13;6119788;23;20009;-91
2024/01/09 02:14:50;;;;;;;23.33;3.63;;;;;;;0.76;92.99;101983.41;6120776;23;20016;-90
2024/01/09 02:17:16;;;;;;;8.63;3.10;;;;;;;0.81;92.03;101985.97;6119655;23;20006;-91
2024/01/09 02:19:41;;;;;;;8.65;3.65;;;;;;;0.73;90.89;101985.91;6121299;23;20002;-91
2024/01/09 02:22:06;;;;;;;7.72;2.50;;;;;;;0.87;89.80;101980.06;6119540;23;20006;-90
2024/01/09 02:24:32;;;;;;;11.52;3.40;;;;;;;0.69;91.95;101975.72;6119877;23;20555;-90
2024/01/09 02:27:13;;;;;;;9.00;3.63;;;;;;;0.74;90.25;101982.53;6121206;23;20010;-91
2024/01/09 02:29:49;;;;;;;11.32;3.70;;;;;;;0.82;89.91;101985.97;6121037;23;20005;-91
2024/01/09 02:32:16;;;;;;;11.05;3.03;;;;;;;0.71;90.00;101982.50;6121385;23;20006;-91
2024/01/09 02:34:44;;;;;;;5.68;3.08;;;;;;;0.68;90.15;101974.84;6121251;23;20002;-91
2024/01/09 02:37:10;;;;;;;10.55;3.97;;;;;;;0.68;90.49;101979.06;6119571;23;20488;-90
2024/01/09 02:39:36;;;;;;;12.10;3.45;;;;;;;0.76;90.10;101991.03;6121165;23;20013;-90
2024/01/09 02:42:02;;;;;;;5.82;2.58;;;;;;;0.68;90.17;101981.63;6119868;23;20353;-91
2024/01/09 02:44:27;;;;;;;12.45;3.83;;;;;;;0.74;90.75;101982.53;6121095;23;20005;-90
2024/01/09 02:46:53;;;;;;;14.70;3.47;;;;;;;0.80;91.36;101972.41;6121293;23;20480;-91
2024/01/09 02:49:18;;;;;;;8.07;3.45;;;;;;;0.78;91.57;101979.19;6121191;23;20314;-90
2024/01/09 02:51:43;;;;;;;7.45;2.75;;;;;;;0.83;91.14;101969.91;6119055;23;20100;-91
2024/01/09 02:54:09;;;;;;;8.70;3.97;;;;;;;0.75;92.63;101971.50;6120784;23;19994;-91
2024/01/09 02:56:36;;;;;;;10.02;3.08;;;;;;;0.82;93.28;101973.25;6121022;23;20056;-90
2024/01/09 02:59:02;;;;;;;11.13;3.20;;;;;;;0.66;93.47;101968.03;6119797;23;20021;-91
2024/01/09 03:01:28;;;;;;;9.75;3.15;;;;;;;0.80;92.30;101967.31;6119508;23;19998;-91
2024/01/09 03:03:53;;;;;;;7.85;3.63;;;;;;;0.71;94.45;101966.38;6120843;23;20009;-91
2024/01/09 03:06:18;;;;;;;13.68;4.30;;;;;;;0.71;93.08;101959.63;6119435;23;20043;-90
2024/01/09 03:08:44;;;;;;;14.15;3.65;;;;;;;0.79;91.96;101968.16;6121317;23;20026;-92
2024/01/09 03:11:09;;;;;;;7.97;3.03;;;;;;;0.72;93.80;101968.94;6119570;23;20052;-91
2024/01/09 03:13:35;;;;;;;10.32;3.55;;;;;;;0.84;92.28;101963.97;6121065;23;20010;-91
2024/01/09 03:16:00;;;;;;;10.30;3.00;;;;;;;0.80;91.76;101967.31;6119210;23;20471;-90
2024/01/09 03:18:25;;;;;;;8.25;3.28;;;;;;;0.71;92.65;101972.34;6119035;23;20018;-91
2024/01/09 03:20:51;;;;;;;8.20;2.92;;;;;;;0.73;93.42;101968.13;6121059;23;20076;-90
2024/01/09 03:23:16;;;;;;;7.95;3.00;;;;;;;0.87;90.84;101965.66;6120631;23;20002;-91
2024/01/09 03:25:41;;;;;;;9.68;3.28;;;;;;;0.65;92.46;101967.19;6120502;23;20329;-90
2024/01/09 03:28:07;;;;;;;8.77;3.17;;;;;;;0.66;93.87;101958.75;6118746;23;20076;-91
2024/01/09 03:30:32;;;;;;;7.30;3.38;;;;;;;0.82;90.47;101969.88;6119045;23;20002;-91
2024/01/09 03:32:58;;;;;;;14.40;3.05;;;;;;;0.75;92.12;101958.81;6120252;23;20432;-89
2024/01/09 03:35:23;;;;;;;11.15;3.03;;;;;;;0.76;91.47;101965.59;6118834;23;20009;-91
2024/01/09 03:37:49;;;;;;;12.18;3.25;;;;;;;0.79;90.41;101965.63;6120351;23;20006;-90
2024/01/09 03:40:14;;;;;;;7.50;2.72;;;;;;;0.82;90.26;101960.56;6120251;23;20333;-91
2024/01/09 03:42:39;;;;;;;7.82;3.10;;;;;;;0.69;90.62;101960.47;6120164;23;20006;-91
2024/01/09 03:45:06;;;;;;;12.50;2.75;;;;;;;0.70;90.80;101962.16;6120277;23;20077;-90
2024/01/09 03:47:32;;;;;;;9.93;3.13;;;;;;;0.70;91.28;101957.91;6119180;23;20002;-92
2024/01/09 03:49:57;;;;;;;14.98;2.97;;;;;;;0.70;91.31;101954.53;6118864;23;20017;-91
2024/01/09 03:52:23;;;;;;;11.93;3.20;;;;;;;0.67;91.38;101960.44;6118807;23;20033;-91
2024/01/09 03:54:48;;;;;;;6.20;2.40;;;;;;;0.74;90.56;101951.19;6120302;23;20006;-91
2024/01/09 03:57:13;;;;;;;7.55;2.70;;;;;;;0.71;90.99;101946.94;6120118;23;20033;-90
2024/01/09 03:59:39;;;;;;;12.23;3.00;;;;;;;0.64;92.32;101940.94;6120294;23;20432;-91
2024/01/09 04:02:04;;;;;;;9.38;3.08;;;;;;;0.67;91.02;101947.75;6118817;23;19998;-90
2024/01/09 04:04:30;;;;;;;9.07;3.13;;;;;;;0.83;90.56;101953.81;6120102;23;20013;-91
2024/01/09 04:06:55;;;;;;;7.57;2.47;;;;;;;0.83;91.17;101941.94;6119924;23;20409;-91
2024/01/09 04:09:20;;;;;;;9.70;2.92;;;;;;;0.83;90.73;101952.09;6120174;23;20073;-91
2024/01/09 04:11:47;;;;;;;8.40;3.13;;;;;;;0.85;90.88;101950.44;6120006;23;20393;-91
2024/01/09 04:14:12;;;;;;;13.27;3.60;;;;;;;0.85;90.87;101952.97;6118700;23;20006;-90
2024/01/09 04:16:38;;;;;;;8.23;4.35;;;;;;;0.92;89.53;101945.38;6119765;23;20035;-91
2024/01/09 04:19:04;;;;;;;12.27;3.20;;;;;;;0.84;91.39;101947.88;6121213;23;20018;-92
2024/01/09 04:21:30;;;;;;;16.73;3.40;;;;;;;0.77;92.49;101941.88;6121562;23;20025;-90
2024/01/09 04:23:55;;;;;;;10.82;2.97;;;;;;;0.76;91.04;101945.28;6121251;23;20085;-89
2024/01/09 04:26:20;;;;;;;7.13;2.78;;;;;;;0.78;92.68;101943.59;6120309;23;20010;-91
2024/01/09 04:28:47;;;;;;;9.32;3.53;;;;;;;0.79;92.29;101949.53;6122428;23;20417;-92
2024/01/09 04:31:12;;;;;;;11.55;3.53;;;;;;;0.71;92.11;101936.78;6122228;23;20025;-91
2024/01/09 04:33:41;;;;;;;8.45;2.78;;;;;;;0.62;93.44;101939.22;6121961;23;20051;-92
2024/01/09 04:36:06;;;;;;;6.55;3.13;;;;;;;0.50;94.77;101944.22;6120049;23;20002;-91
2024/01/09 04:38:31;;;;;;;10.32;2.60;;;;;;;0.69;94.04;101945.22;6121678;23;20051;-90
2024/01/09 04:40:57;;;;;;;6.25;2.97;;;;;;;0.75;93.21;101941.00;6121392;23;20429;-90
2024/01/09 04:43:22;;;;;;;12.60;3.17;;;;;;;0.84;92.91;101941.09;6121804;23;20441;-91
2024/01/09 04:45:48;;;;;;;6.35;2.97;;;;;;;0.77;93.96;101946.97;6121760;23;20006;-90
2024/01/09 04:48:13;;;;;;;13.98;3.63;;;;;;;0.80;92.99;101941.91;6121611;23;20005;-90
2024/01/09 04:50:38;;;;;;;9.68;2.90;;;;;;;0.88;91.99;101938.56;6121872;23;20437;-91
2024/01/09 04:53:03;;;;;;;4.28;2.20;;;;;;;0.84;93.63;101938.53;6122313;23;20001;-91
2024/01/09 04:55:29;;;;;;;14.07;3.15;;;;;;;0.71;94.83;101941.84;6121394;23;20006;-91
2024/01/09 04:57:54;;;;;;;11.50;3.15;;;;;;;0.78;94.73;101933.44;6121591;23;20006;-91
2024/01/09 05:00:20;;;;;;;7.45;2.50;;;;;;;0.82;94.51;101941.91;6121656;23;20010;-91
2024/01/09 05:02:45;;;;;;;10.82;3.47;;;;;;;0.67;95.96;101935.03;6122134;23;20044;-91
2024/01/09 05:05:11;;;;;;;8.02;3.03;;;;;;;0.83;96.63;101947.03;6121715;23;20346;-90
2024/01/09 05:07:36;;;;;;;14.50;5.38;;;;;;;0.82;95.48;101935.13;6119894;23;20002;-91
2024/01/09 05:10:01;;;;;;;6.40;3.15;;;;;;;0.76;97.72;101934.25;6120027;23;20021;-91
2024/01/09 05:12:27;;;;;;;9.10;2.83;;;;;;;0.60;97.23;101938.38;6120099;22;20002;-91
2024/01/09 05:14:52;;;;;;;8.75;3.15;;;;;;;0.61;98.43;101940.06;6120066;23;20024;-90
2024/01/09 05:17:17;;;;;;;5.80;2.60;;;;;;;0.73;96.22;101940.19;6121552;23;20044;-91
2024/01/09 05:19:43;;;;;;;15.23;3.78;;;;;;;0.66;95.83;101928.25;6121547;23;20060;-91
2024/01/09 05:22:08;;;;;;;9.70;2.90;;;;;;;0.59;97.45;101927.34;6121633;23;20055;-91
2024/01/09 05:24:34;;;;;;;8.48;3.03;;;;;;;0.72;96.06;101932.53;6121716;23;20010;-90
2024/01/09 05:26:59;;;;;;;14.98;2.95;;;;;;;0.66;97.71;101943.50;6121702;23;20329;-91
2024/01/09 05:29:24;;;;;;;11.02;3.30;;;;;;;0.77;95.73;101936.78;6121360;23;20451;-91
2024/01/09 05:31:50;;;;;;;16.90;5.05;;;;;;;0.69;95.63;101928.28;6121337;23;20002;-90
2024/01/09 05:34:15;;;;;;;6.90;3.28;;;;;;;0.66;97.06;101940.09;6121456;23;20006;-91
2024/01/09 05:36:40;;;;;;;8.07;2.78;;;;;;;0.71;97.35;101941.84;6121553;23;20002;-91
2024/01/09 05:39:06;;;;;;;23.55;6.07;;;;;;;0.60;97.67;101926.50;6121409;23;20036;-91
2024/01/09 05:41:31;;;;;;;9.38;2.88;;;;;;;0.68;98.57;101936.72;6121672;23;20376;-91
2024/01/09 05:43:57;;;;;;;15.23;2.80;;;;;;;0.70;97.36;101927.44;6121361;23;20040;-91
2024/01/09 05:46:22;;;;;;;10.50;3.50;;;;;;;0.66;97.51;101933.34;6119989;23;20024;-90
2024/01/09 05:48:48;;;;;;;10.15;3.97;;;;;;;0.75;97.75;101932.53;6121492;23;19998;-91
2024/01/09 05:51:14;;;;;;;15.77;4.32;;;;;;;0.65;97.51;101929.09;6121247;23;20077;-91
2024/01/09 05:53:39;;;;;;;9.07;2.55;;;;;;;0.71;97.71;101931.69;6120113;23;20010;-91
2024/01/09 05:56:06;;;;;;;11.02;3.67;;;;;;;0.68;97.49;101936.72;6121418;23;20120;-90
2024/01/09 05:58:33;;;;;;;14.00;3.72;;;;;;;0.65;97.63;101926.53;6121432;23;20009;-91
2024/01/09 06:00:58;;;;;;;7.63;2.70;;;;;;;0.78;97.46;101933.44;6120255;23;20006;-91
2024/01/09 06:03:24;;;;;;;5.57;2.78;;;;;;;0.63;98.69;101931.63;6121428;23;20326;-91
2024/01/09 06:05:49;;;;;;;14.23;4.45;;;;;;;0.52;100.00;101929.84;6119888;23;20119;-90
2024/01/09 06:08:14;;;;;;;8.02;3.15;;;;;;;0.52;100.00;101924.75;6121394;23;20009;-91
2024/01/09 06:10:41;;;;;;;8.40;3.78;;;;;;;0.42;100.00;101924.69;6121396;23;20006;-91
2024/01/09 06:13:06;;;;;;;6.78;2.80;;;;;;;0.52;100.00;101934.94;6122176;23;20009;-90
2024/01/09 06:15:31;;;;;;;8.70;2.65;;;;;;;0.56;100.00;101926.47;6121429;23;20085;-91
2024/01/09 06:17:57;;;;;;;10.63;2.95;;;;;;;0.48;100.00;101933.19;6121333;23;20009;-91
2024/01/09 06:20:22;;;;;;;13.85;2.92;;;;;;;0.52;100.00;101933.22;6121620;23;20051;-91
2024/01/09 06:22:47;;;;;;;17.60;3.28;;;;;;;0.50;100.00;101931.50;6121211;23;20005;-91
2024/01/09 06:25:13;;;;;;;11.38;3.65;;;;;;;0.52;100.00;101929.84;6121628;23;20409;-91
2024/01/09 06:27:39;;;;;;;12.65;2.83;;;;;;;0.65;100.00;101936.72;6121229;23;20345;-91
2024/01/09 06:30:06;;;;;;;11.15;3.78;;;;;;;0.59;100.00;101936.69;6121388;23;20484;-90
2024/01/09 06:32:32;;;;;;;11.32;3.17;;;;;;;0.62;100.00;101937.53;6121411;23;20002;-90
2024/01/09 06:34:57;;;;;;;9.98;2.92;;;;;;;0.53;100.00;101941.69;6121330;23;20011;-91
2024/01/09 06:37:23;;;;;;;12.93;2.63;;;;;;;0.59;100.00;101931.59;6121128;23;20089;-91
2024/01/09 06:39:48;;;;;;;11.13;2.92;;;;;;;0.54;100.00;101933.25;6119758;23;20429;-91
2024/01/09 06:42:14;;;;;;;12.38;3.35;;;;;;;0.54;100.00;101943.41;6121173;23;20009;-90
2024/01/09 06:44:39;;;;;;;13.15;3.70;;;;;;;0.54;100.00;101940.88;6119609;23;20012;-91
2024/01/09 06:47:04;;;;;;;13.40;3.50;;;;;;;0.50;100.00;101926.44;6121188;23;20060;-90
2024/01/09 06:49:30;;;;;;;8.98;2.80;;;;;;;0.64;100.00;101929.94;6121131;23;20448;-91
2024/01/09 06:51:55;;;;;;;11.32;3.45;;;;;;;0.58;100.00;101922.25;6121374;23;20028;-90
2024/01/09 06:54:20;;;;;;;7.97;3.15;;;;;;;0.63;100.00;101928.22;6121146;23;20002;-91
2024/01/09 06:56:46;;;;;;;13.43;3.28;;;;;;;0.66;99.47;101933.34;6121295;23;20435;-90
2024/01/09 06:59:11;;;;;;;23.70;3.17;;;;;;;0.64;99.88;101935.03;6120922;23;20009;-92
2024/01/09 07:01:38;;;;;;;12.35;3.30;;;;;;;0.45;100.00;101933.16;6121236;23;20086;-91
2024/01/09 07:04:05;;;;;;;7.00;2.97;;;;;;;0.56;99.68;101936.63;6121217;23;20318;-90
2024/01/09 07:06:30;;;;;;;5.15;3.17;;;;;;;0.56;100.00;101934.97;6120532;23;20478;-91
2024/01/09 07:08:56;;;;;;;6.20;2.92;;;;;;;0.27;100.00;101944.88;6121386;23;20002;-90
2024/01/09 07:11:21;;;;;;;17.17;3.10;;;;;;;0.25;100.00;101945.69;6121068;23;20306;-91
2024/01/09 07:13:46;;;;;;;8.75;3.00;;;;;;;0.32;100.00;101947.47;6121176;23;20006;-91
2024/01/09 07:16:12;;;;;;;9.43;2.97;;;;;;;0.27;100.00;101944.88;6121099;23;20012;-91
2024/01/09 07:18:37;;;;;;;10.70;3.38;;;;;;;0.23;100.00;101947.38;6121116;23;20017;-90
2024/01/09 07:21:03;;;;;;;13.05;2.97;;;;;;;0.14;100.00;101946.41;6120828;23;20333;-88
2024/01/09 07:23:28;;;;;;;12.07;3.17;;;;;;;0.19;100.00;101943.94;6120968;23;19997;-91
2024/01/09 07:25:54;;;;;;;12.85;3.47;;;;;;;0.11;100.00;101960.78;6121217;23;20010;-91
2024/01/09 07:28:19;;;;;;;13.90;3.50;;;;;;;0.05;100.00;101953.09;6121144;23;20452;-91
2024/01/09 07:30:45;;;;;;;7.10;2.58;;;;;;;0.03;100.00;101959.88;6120943;23;20002;-92
2024/01/09 07:33:10;;;;;;;8.65;3.10;;;;;;;0.11;100.00;101954.00;6119436;23;20006;-91
2024/01/09 07:35:37;;;;;;;9.88;2.80;;;;;;;0.11;100.00;101958.25;6120732;23;20013;-90
2024/01/09 07:38:04;;;;;;;18.90;3.58;;;;;;;0.17;100.00;101964.25;6120908;23;20063;-91
2024/01/09 07:40:29;;;;;;;5.78;2.78;;;;;;;0.06;100.00;101970.88;6121235;23;20005;-90
2024/01/09 07:42:58;;;;;;;10.30;3.22;;;;;;;-0.08;100.00;101952.97;6120116;23;20002;-91
2024/01/09 07:45:28;;;;;;;12.20;3.22;;;;;;;0.03;100.00;101960.72;6120966;23;20093;-91
2024/01/09 07:47:54;;;;;;;10.10;2.83;;;;;;;0.05;100.00;101963.25;6119714;23;20077;-91
2024/01/09 07:50:19;;;;;;;9.82;2.95;;;;;;;0.02;100.00;101958.13;6120949;23;20026;-91
2024/01/09 07:52:46;;;;;;;14.93;4.32;;;;;;;-0.02;100.00;101963.19;6119522;23;20429;-90
2024/01/09 07:55:11;;;;;;;12.38;3.33;;;;;;;0.04;100.00;101961.56;6121711;23;19998;-92
2024/01/09 07:57:37;;;;;;;9.73;4.10;;;;;;;-0.03;100.00;101966.56;6121994;23;20002;-91
2024/01/09 08:00:04;;;;;;;16.65;3.10;;;;;;;-0.06;100.00;101969.06;6121990;23;20006;-92
2024/01/09 08:02:29;;;;;;;10.25;3.10;;;;;;;-0.03;100.00;101971.63;6120334;23;20017;-91
2024/01/09 08:04:55;;;;;;;8.32;3.40;;;;;;;-0.03;100.00;101960.63;6121953;23;20379;-90
2024/01/09 08:07:20;;;;;;;8.10;2.90;;;;;;;0.01;100.00;101964.06;6120421;23;20064;-91
2024/01/09 08:09:46;;;;;;;10.98;3.97;;;;;;;-0.05;100.00;101957.22;6122124;23;20444;-92
2024/01/09 08:12:12;;;;;;;10.82;3.15;;;;;;;-0.02;100.00;101968.28;6122034;23;20123;-92
2024/01/09 08:14:37;;;;;;;15.40;3.30;;;;;;;-0.05;100.00;101964.84;6120165;23;20033;-92
2024/01/09 08:17:03;;;;;;;14.77;3.60;;;;;;;0.02;100.00;101973.38;6120409;23;20006;-91
2024/01/09 08:19:28;;;;;;;11.20;3.83;;;;;;;0.10;100.00;101966.69;6121458;23;20446;-91
2024/01/09 08:21:54;;;;;;;10.55;4.25;;;;;;;0.04;100.00;101971.72;6122586;23;20128;-91
2024/01/09 08:24:19;;;;;;;11.88;3.63;;;;;;;-0.04;100.00;101975.00;6120536;23;20010;-91
2024/01/09 08:26:49;;;;;;;10.98;4.60;;;;;;;0.01;100.00;101977.59;6121753;23;20036;-90
2024/01/09 08:29:17;;;;;;;7.88;3.20;;;;;;;0.11;100.00;101978.56;6122111;23;20014;-91
2024/01/09 08:31:47;;;;;;;14.73;4.00;;;;;;;0.03;100.00;101975.09;6121998;23;20468;-92
2024/01/09 08:34:13;;;;;;;9.02;3.40;;;;;;;0.11;100.00;101974.31;6120872;23;20330;-91
2024/01/09 08:36:39;;;;;;;12.73;3.50;;;;;;;0.10;100.00;101987.00;6121819;23;20494;-91
2024/01/09 08:39:05;;;;;;;8.88;3.63;;;;;;;0.12;100.00;101980.25;6121718;23;20006;-91
2024/01/09 08:41:30;;;;;;;16.92;4.35;;;;;;;0.19;100.00;101987.09;6122270;23;20009;-91
2024/01/09 08:43:56;;;;;;;8.30;3.38;;;;;;;0.18;100.00;101987.94;6121724;23;20056;-91
2024/01/09 08:46:21;;;;;;;9.60;4.28;;;;;;;0.17;100.00;101986.22;6122165;23;19998;-91
2024/01/09 08:48:46;;;;;;;8.55;4.10;;;;;;;0.16;100.00;101984.53;6121797;23;20029;-90
2024/01/09 08:51:12;;;;;;;9.60;4.03;;;;;;;0.19;100.00;101989.63;6122016;23;20072;-91
2024/01/09 08:53:37;;;;;;;12.55;3.42;;;;;;;0.29;100.00;101986.34;6121986;23;20002;-92
2024/01/09 08:56:03;;;;;;;12.07;3.58;;;;;;;0.33;100.00;101989.78;6121821;23;20183;-92
2024/01/09 08:58:28;;;;;;;9.57;3.10;;;;;;;0.49;100.00;101995.84;6121330;23;20456;-91
2024/01/09 09:00:54;;;;;;;9.40;3.35;;;;;;;0.53;100.00;101988.25;6122210;23;20030;-91
2024/01/09 09:03:19;;;;;;;17.55;5.68;;;;;;;0.52;100.00;101990.81;6121741;23;20336;-91
2024/01/09 09:05:44;;;;;;;18.05;4.18;;;;;;;0.47;100.00;101987.38;6121519;23;20081;-91
2024/01/09 09:08:11;;;;;;;12.07;3.33;;;;;;;0.59;100.00;101990.88;6121692;23;20328;-90
2024/01/09 09:10:37;;;;;;;11.98;3.20;;;;;;;0.49;100.00;101995.84;6121303;23;20012;-91
2024/01/09 09:13:03;;;;;;;13.02;3.45;;;;;;;0.46;100.00;101996.66;6119661;23;20081;-91
2024/01/09 09:15:28;;;;;;;10.90;4.13;;;;;;;0.49;100.00;101996.72;6121079;23;20002;-91
2024/01/09 09:17:54;;;;;;;8.43;3.75;;;;;;;0.46;100.00;101998.34;6119599;23;20014;-91
2024/01/09 09:20:20;;;;;;;10.68;4.65;;;;;;;0.31;100.00;101996.53;6121193;23;20448;-90
2024/01/09 09:22:46;;;;;;;11.48;4.13;;;;;;;0.31;100.00;102002.44;6121224;23;20028;-91
2024/01/09 09:25:11;;;;;;;11.52;3.92;;;;;;;0.19;100.00;101993.00;6119682;23;20052;-91
2024/01/09 09:27:37;;;;;;;8.90;3.78;;;;;;;0.35;100.00;102006.72;6121183;23;20006;-92
2024/01/09 09:30:02;;;;;;;14.95;5.22;;;;;;;0.21;100.00;102010.81;6119707;23;20337;-91
2024/01/09 09:32:28;;;;;;;15.35;4.70;;;;;;;0.28;100.00;102007.50;6121605;23;20009;-91
2024/01/09 09:34:53;;;;;;;14.27;6.10;;;;;;;0.41;100.00;101995.78;6121170;23;20022;-91
2024/01/09 09:37:19;;;;;;;14.65;5.10;;;;;;;0.38;100.00;102019.47;6119614;23;20010;-90
2024/01/09 09:39:45;;;;;;;10.70;3.90;;;;;;;0.53;100.00;102010.28;6121122;23;20010;-91
2024/01/09 09:42:10;;;;;;;12.23;3.97;;;;;;;0.61;100.00;102006.13;6121213;23;20064;-91
2024/01/09 09:44:37;;;;;;;18.30;5.65;;;;;;;0.56;100.00;102008.63;6119273;23;20033;-91
2024/01/09 09:47:03;;;;;;;11.80;3.95;;;;;;;0.60;100.00;102000.19;6121271;23;20041;-90
2024/01/09 09:49:30;;;;;;;14.05;4.43;;;;;;;0.53;100.00;102002.66;6121207;23;20006;-91
2024/01/09 09:51:58;;;;;;;12.68;3.95;;;;;;;0.67;100.00;102002.78;6121271;23;20314;-90
2024/01/09 09:54:24;;;;;;;16.40;3.80;;;;;;;0.50;100.00;102008.56;6119293;23;20397;-90
2024/01/09 09:56:50;;;;;;;11.15;4.43;;;;;;;0.56;100.00;102002.69;6119512;23;20333;-92
2024/01/09 09:59:15;;;;;;;13.63;4.07;;;;;;;0.66;99.99;101994.31;6121223;23;20002;-90
2024/01/09 10:01:43;;;;;;;10.98;4.03;;;;;;;0.58;100.00;102006.09;6121381;23;20002;-91
2024/01/09 10:04:11;;;;;;;17.55;4.53;;;;;;;0.56;100.00;102007.75;6121079;23;20006;-91
2024/01/09 10:06:38;;;;;;;12.15;3.85;;;;;;;0.48;100.00;101995.00;6119951;22;20079;-91
2024/01/09 10:09:06;;;;;;;9.07;3.75;;;;;;;0.68;99.77;101995.16;6121362;23;20006;-90
2024/01/09 10:11:34;;;;;;;14.07;3.92;;;;;;;0.58;99.04;101991.69;6119629;23;20005;-92
2024/01/09 10:14:00;;;;;;;9.20;3.78;;;;;;;0.87;98.63;102008.03;6121134;23;20081;-90
2024/01/09 10:16:25;;;;;;;9.10;3.70;;;;;;;0.79;97.19;101998.66;6120949;23;20513;-91
2024/01/09 10:18:54;;;;;;;10.23;3.80;;;;;;;1.43;94.76;102003.31;6121502;23;20010;-91
2024/01/09 10:21:19;;;;;;;9.23;3.70;;;;;;;1.49;90.92;102005.91;6121542;23;20081;-91
2024/01/09 10:23:45;;;;;;;12.27;3.70;;;;;;;2.00;87.92;101998.50;6121421;23;20021;-90
2024/01/09 10:26:13;;;;;;;9.93;3.58;;;;;;;3.05;81.84;102006.22;6121552;23;20002;-92
2024/01/09 10:28:39;;;;;;;12.93;6.72;;;;;;;1.84;85.74;102006.91;6121601;23;20002;-90
2024/01/09 10:31:06;;;;;;;8.07;3.35;;;;;;;1.61;89.19;102005.13;6121541;23;20456;-90
2024/01/09 10:33:32;;;;;;;13.55;3.05;;;;;;;1.55;90.36;102010.19;6119874;23;20009;-91
2024/01/09 10:35:58;;;;;;;16.70;4.07;;;;;;;1.58;88.81;102002.53;6121571;23;20009;-91
2024/01/09 10:38:27;;;;;;;9.80;4.13;;;;;;;1.33;91.02;102016.00;6120165;23;20014;-90
2024/01/09 10:40:56;;;;;;;16.60;3.92;;;;;;;2.32;87.00;102000.28;6121775;23;20081;-91
2024/01/09 10:43:25;;;;;;;11.43;3.55;;;;;;;2.82;81.57;102009.66;6121365;23;20017;-90
2024/01/09 10:45:52;;;;;;;16.25;4.00;;;;;;;2.75;82.63;102000.28;6121326;23;20413;-91
2024/01/09 10:48:20;;;;;;;14.40;3.75;;;;;;;2.47;83.41;102002.84;6119670;23;20463;-91
2024/01/09 10:50:47;;;;;;;16.20;3.97;;;;;;;2.29;84.76;102010.44;6119706;23;20444;-91
2024/01/09 10:53:14;;;;;;;6.15;3.20;;;;;;;1.78;87.13;102017.06;6121321;23;20006;-91
2024/01/09 10:55:41;;;;;;;18.85;4.13;;;;;;;1.48;90.69;102009.28;6121225;23;20002;-90
2024/01/09 10:58:08;;;;;;;13.65;3.47;;;;;;;1.57;92.83;102000.84;6119553;23;20084;-91
2024/01/09 11:00:34;;;;;;;11.30;3.88;;;;;;;1.53;93.14;102005.91;6119698;23;20081;-90
2024/01/09 11:03:00;;;;;;;16.80;4.22;;;;;;;1.94;91.75;102008.66;6121391;23;19998;-92
2024/01/09 11:05:25;;;;;;;15.02;3.85;;;;;;;1.76;91.87;102016.22;6119432;23;20306;-90
2024/01/09 11:07:53;;;;;;;12.45;5.03;;;;;;;1.34;94.73;102004.97;6121027;23;20049;-91
2024/01/09 11:10:22;;;;;;;10.65;3.83;;;;;;;1.17;96.04;102003.19;6121118;23;20333;-91
2024/01/09 11:12:50;;;;;;;9.65;3.70;;;;;;;1.45;95.03;102014.38;6121388;23;20055;-93
2024/01/09 11:15:23;;;;;;;13.68;4.63;;;;;;;1.11;97.90;102015.84;6121006;23;20081;-92
2024/01/09 11:17:55;;;;;;;14.05;3.97;;;;;;;1.31;97.79;102010.88;6121172;23;20016;-92
2024/01/09 11:20:21;;;;;;;11.40;3.25;;;;;;;1.24;98.90;102020.19;6119866;23;19998;-91